createdAt,value
2023-03-06T00:02:14.466Z,2.80
2023-03-06T00:08:16.795Z,2.70
2023-03-06T00:14:19.025Z,2.60
2023-03-06T00:20:21.811Z,2.60
2023-03-06T00:26:23.933Z,2.60
2023-03-06T00:32:27.181Z,2.60
2023-03-06T00:38:33.686Z,2.50
2023-03-06T00:44:35.829Z,2.60
2023-03-06T00:50:38.217Z,2.40
2023-03-06T00:56:40.421Z,2.40
2023-03-06T01:02:43.139Z,2.30
2023-03-06T01:08:45.407Z,2.20
2023-03-06T01:14:47.602Z,2.10
2023-03-06T01:20:49.839Z,2.10
2023-03-06T01:26:52.098Z,2.00
2023-03-06T01:32:55.378Z,2.10
2023-03-06T01:38:57.424Z,2.10
2023-03-06T01:45:11.965Z,2.10
2023-03-06T01:51:15.287Z,2.10
2023-03-06T01:57:24.646Z,2.10
2023-03-06T02:03:28.684Z,2.10
2023-03-06T02:09:33.064Z,2.10
2023-03-06T02:15:35.522Z,2.10
2023-03-06T02:21:37.956Z,2.00
2023-03-06T02:27:42.756Z,1.90
2023-03-06T02:33:46.107Z,2.00
2023-03-06T02:39:53.169Z,1.90
2023-03-06T02:45:55.892Z,1.80
2023-03-06T02:51:58.163Z,1.80
2023-03-06T02:58:01.009Z,1.70
2023-03-06T03:04:05.808Z,1.60
2023-03-06T03:10:09.493Z,1.50
2023-03-06T03:16:15.766Z,1.50
2023-03-06T03:22:18.927Z,1.50
2023-03-06T03:28:21.527Z,1.50
2023-03-06T03:34:23.897Z,1.40
2023-03-06T03:40:27.034Z,1.40
2023-03-06T03:46:29.542Z,1.50
2023-03-06T03:52:33.009Z,1.40
2023-03-06T03:58:35.478Z,1.40
2023-03-06T04:04:38.211Z,1.30
2023-03-06T04:10:41.254Z,1.30
2023-03-06T04:16:45.134Z,1.20
2023-03-06T04:22:47.970Z,1.10
2023-03-06T04:28:51.706Z,1.00
2023-03-06T04:34:55.228Z,1.00
2023-03-06T04:40:57.926Z,1.00
2023-03-06T04:47:00.045Z,1.00
2023-03-06T04:53:02.700Z,1.00
2023-03-06T04:59:05.465Z,1.00
2023-03-06T05:05:07.963Z,1.20
2023-03-06T05:11:10.277Z,1.50
2023-03-06T05:17:13.108Z,4.10
2023-03-06T05:23:15.202Z,6.10
2023-03-06T05:29:17.235Z,7.30
2023-03-06T05:35:21.846Z,7.70
2023-03-06T05:41:24.009Z,8.20
2023-03-06T05:47:26.134Z,10.10
2023-03-06T05:53:29.583Z,11.10
2023-03-06T05:59:33.370Z,10.60
2023-03-06T06:05:39.589Z,9.50
2023-03-06T06:11:41.757Z,10.80
2023-03-06T06:17:44.030Z,11.80
2023-03-06T06:23:46.512Z,13.50
2023-03-06T06:29:52.182Z,15.20
2023-03-06T06:35:54.528Z,15.00
2023-03-06T06:42:14.640Z,15.00
2023-03-06T06:48:19.018Z,16.10
2023-03-06T06:54:22.702Z,17.10
2023-03-06T07:00:24.928Z,18.40
2023-03-06T07:06:27.371Z,18.40
2023-03-06T07:12:32.603Z,19.20
2023-03-06T07:18:34.852Z,18.70
2023-03-06T07:24:37.390Z,17.90
2023-03-06T07:30:43.071Z,15.80
2023-03-06T07:36:45.562Z,13.90
2023-03-06T07:42:47.935Z,12.60
2023-03-06T07:48:53.308Z,12.60
2023-03-06T07:54:55.712Z,12.90
2023-03-06T08:00:57.841Z,12.30
2023-03-06T08:07:00.140Z,10.90
2023-03-06T08:13:02.621Z,9.80
2023-03-06T08:19:05.074Z,9.20
2023-03-06T08:25:08.302Z,9.10
2023-03-06T08:31:28.773Z,8.70
2023-03-06T08:37:31.084Z,8.60
2023-03-06T08:43:35.232Z,8.40
2023-03-06T08:49:40.011Z,8.20
2023-03-06T08:55:42.349Z,8.20
2023-03-06T09:01:45.479Z,8.40
2023-03-06T09:07:47.853Z,8.50
2023-03-06T09:13:50.815Z,8.50
2023-03-06T09:19:53.184Z,8.80
2023-03-06T09:25:57.179Z,9.20
2023-03-06T09:31:59.454Z,9.40
2023-03-06T09:38:02.420Z,10.10
2023-03-06T09:44:16.872Z,10.20
2023-03-06T09:50:34.133Z,10.10
2023-03-06T09:56:37.579Z,10.20
2023-03-06T10:02:48.363Z,10.10
2023-03-06T10:08:58.594Z,10.50
2023-03-06T10:15:19.830Z,10.40
2023-03-06T10:21:42.646Z,10.30
2023-03-06T10:28:01.537Z,10.30
2023-03-06T10:34:30.601Z,10.50
2023-03-06T10:40:43.524Z,11.20
2023-03-06T10:46:48.282Z,12.10
2023-03-06T10:53:05.919Z,13.40
2023-03-06T10:59:18.362Z,14.50
2023-03-06T11:05:21.356Z,16.10
2023-03-06T11:11:36.760Z,16.40
2023-03-06T11:18:22.593Z,15.90
2023-03-06T11:24:25.371Z,15.40
2023-03-06T11:30:42.666Z,17.90
2023-03-06T11:36:59.044Z,18.70
2023-03-06T11:43:16.543Z,16.10
2023-03-06T11:49:29.289Z,14.30
2023-03-06T11:55:56.185Z,12.80
2023-03-06T12:02:25.399Z,12.00
2023-03-06T12:08:36.602Z,12.10
2023-03-06T12:14:53.972Z,12.30
2023-03-06T12:21:15.220Z,11.80
2023-03-06T12:27:41.314Z,11.70
2023-03-06T12:34:01.812Z,11.40
2023-03-06T12:40:28.579Z,11.30
2023-03-06T12:46:30.932Z,11.20
2023-03-06T12:52:35.104Z,11.40
2023-03-06T12:58:52.196Z,11.70
2023-03-06T13:04:57.032Z,12.10
2023-03-06T13:11:24.146Z,12.10
2023-03-06T13:17:39.240Z,11.90
2023-03-06T13:23:51.423Z,11.50
2023-03-06T13:30:36.801Z,11.90
2023-03-06T13:36:39.897Z,12.10
2023-03-06T13:42:45.150Z,11.70
2023-03-06T13:49:05.097Z,11.90
2023-03-06T13:55:49.523Z,12.30
2023-03-06T14:02:07.941Z,12.80
2023-03-06T14:08:14.173Z,12.10
2023-03-06T14:14:17.130Z,11.40
2023-03-06T14:20:21.107Z,11.00
2023-03-06T14:26:26.053Z,10.90
2023-03-06T14:32:28.697Z,10.90
2023-03-06T14:38:36.195Z,10.80
2023-03-06T14:44:38.601Z,10.70
2023-03-06T14:50:42.077Z,10.70
2023-03-06T14:56:51.673Z,10.60
2023-03-06T15:02:56.200Z,10.30
2023-03-06T15:09:07.192Z,10.10
2023-03-06T15:15:11.066Z,10.00
2023-03-06T15:21:21.747Z,9.90
2023-03-06T15:27:30.540Z,9.80
2023-03-06T15:33:32.809Z,9.70
2023-03-06T15:39:40.589Z,9.60
2023-03-06T15:45:42.854Z,9.40
2023-03-06T15:51:45.142Z,9.30
2023-03-06T15:58:00.259Z,9.10
2023-03-06T16:04:02.699Z,9.00
2023-03-06T16:10:05.297Z,8.80
2023-03-06T16:16:07.735Z,8.60
2023-03-06T16:22:10.272Z,8.40
2023-03-06T16:28:17.355Z,8.20
2023-03-06T16:34:20.103Z,8.00
2023-03-06T16:40:24.688Z,8.00
2023-03-06T16:46:27.062Z,7.80
2023-03-06T16:52:41.974Z,7.60
2023-03-06T16:58:44.456Z,7.40
2023-03-06T17:04:46.580Z,7.30
2023-03-06T17:10:50.257Z,7.20
2023-03-06T17:16:54.404Z,7.00
2023-03-06T17:22:56.862Z,6.90
2023-03-06T17:28:59.166Z,6.70
2023-03-06T17:35:01.674Z,6.60
2023-03-06T17:41:05.668Z,6.40
2023-03-06T17:47:07.789Z,6.20
2023-03-06T17:53:09.928Z,6.10
2023-03-06T17:59:12.526Z,6.00
2023-03-06T18:05:14.815Z,5.90
2023-03-06T18:11:17.452Z,5.80
2023-03-06T18:17:19.557Z,5.70
2023-03-06T18:23:21.952Z,5.50
2023-03-06T18:29:24.657Z,5.40
2023-03-06T18:35:27.299Z,5.30
2023-03-06T18:41:30.779Z,5.20
2023-03-06T18:47:34.015Z,5.20
2023-03-06T18:53:37.020Z,5.20
2023-03-06T18:59:39.144Z,5.40
2023-03-06T19:05:42.948Z,5.60
2023-03-06T19:11:47.169Z,5.80
2023-03-06T19:17:50.166Z,6.00
2023-03-06T19:23:52.602Z,5.90
2023-03-06T19:29:54.901Z,5.80
2023-03-06T19:35:57.429Z,5.90
2023-03-06T19:42:00.065Z,5.80
2023-03-06T19:48:03.508Z,5.70
2023-03-06T19:54:05.748Z,5.80
2023-03-06T20:00:09.085Z,5.70
2023-03-06T20:06:17.666Z,5.50
2023-03-06T20:12:20.967Z,5.40
2023-03-06T20:18:23.475Z,5.50
2023-03-06T20:24:26.496Z,5.40
2023-03-06T20:30:37.526Z,5.60
2023-03-06T20:36:40.842Z,5.70
2023-03-06T20:42:43.171Z,5.80
2023-03-06T20:48:47.511Z,5.90
2023-03-06T20:54:50.271Z,6.10
2023-03-06T21:00:52.854Z,6.10
2023-03-06T21:06:55.580Z,6.10
2023-03-06T21:12:57.869Z,6.20
2023-03-06T21:19:01.103Z,6.30
2023-03-06T21:25:03.309Z,6.40
2023-03-06T21:31:08.866Z,6.40
2023-03-06T21:37:11.403Z,6.50
2023-03-06T21:43:13.868Z,6.50
2023-03-06T21:49:16.032Z,6.40
2023-03-06T21:55:18.491Z,6.30
2023-03-06T22:01:23.976Z,6.20
2023-03-06T22:07:26.526Z,6.30
2023-03-06T22:13:29.097Z,6.30
2023-03-06T22:19:31.315Z,6.30
2023-03-06T22:25:34.994Z,6.40
2023-03-06T22:31:39.278Z,6.40
2023-03-06T22:37:42.832Z,6.60
2023-03-06T22:43:45.112Z,6.60
2023-03-06T22:49:47.280Z,6.70
2023-03-06T22:55:49.343Z,6.70
2023-03-06T23:01:51.575Z,6.70
2023-03-06T23:07:53.997Z,6.70
2023-03-06T23:13:57.413Z,6.80
2023-03-06T23:20:18.584Z,6.90
2023-03-06T23:26:41.187Z,7.10
2023-03-06T23:32:45.735Z,6.90
2023-03-06T23:38:48.757Z,6.80
2023-03-06T23:44:50.858Z,6.70
2023-03-06T23:50:54.024Z,6.50
2023-03-06T23:56:56.561Z,6.40
